createdAt,value
2018-12-03T05:00:29.157Z,0.00
2018-12-03T05:01:29.134Z,0.00
2018-12-03T05:02:29.123Z,0.00
2018-12-03T05:03:29.151Z,0.00
2018-12-03T05:04:29.112Z,0.00
2018-12-03T05:05:29.090Z,0.00
2018-12-03T05:06:29.094Z,0.00
2018-12-03T05:07:29.073Z,0.00
2018-12-03T05:08:29.070Z,0.00
2018-12-03T05:09:29.046Z,0.00
2018-12-03T05:10:29.035Z,0.00
2018-12-03T05:11:29.021Z,0.00
2018-12-03T05:12:29.008Z,0.00
2018-12-03T05:13:29.031Z,0.00
2018-12-03T05:14:28.986Z,0.00
2018-12-03T05:15:28.975Z,0.00
2018-12-03T05:16:28.966Z,0.00
2018-12-03T05:17:28.956Z,0.00
2018-12-03T05:18:28.961Z,0.00
2018-12-03T05:19:28.943Z,0.00
2018-12-03T05:20:28.925Z,0.00
2018-12-03T05:21:28.912Z,0.00
2018-12-03T05:22:28.901Z,0.00
2018-12-03T05:23:28.902Z,0.00
2018-12-03T05:24:28.882Z,0.00
2018-12-03T05:25:28.866Z,0.00
2018-12-03T05:26:28.855Z,0.00
2018-12-03T05:27:28.846Z,0.00
2018-12-03T05:28:28.853Z,0.00
2018-12-03T05:29:28.821Z,0.00
2018-12-03T05:30:28.813Z,0.00
2018-12-03T05:31:28.802Z,0.00
2018-12-03T05:32:28.788Z,0.00
2018-12-03T05:33:28.792Z,0.00
2018-12-03T05:34:28.769Z,0.00
2018-12-03T05:35:28.760Z,0.00
2018-12-03T05:36:28.747Z,0.00
2018-12-03T05:37:28.737Z,0.00
2018-12-03T05:38:28.737Z,0.00
2018-12-03T05:39:28.712Z,0.00
2018-12-03T05:40:28.702Z,0.00
2018-12-03T05:41:28.694Z,0.00
2018-12-03T05:42:28.679Z,0.00
2018-12-03T05:43:28.688Z,0.00
2018-12-03T05:44:28.656Z,0.00
2018-12-03T05:45:28.652Z,0.00
2018-12-03T05:46:28.640Z,0.00
2018-12-03T05:47:28.650Z,0.00
2018-12-03T05:48:28.628Z,0.00
2018-12-03T05:49:28.605Z,0.00
2018-12-03T05:50:28.595Z,0.00
2018-12-03T05:51:28.586Z,0.00
2018-12-03T05:52:28.587Z,0.00
2018-12-03T05:53:28.577Z,0.00
2018-12-03T05:54:28.549Z,0.00
2018-12-03T05:55:28.548Z,0.00
2018-12-03T05:56:28.534Z,0.00
2018-12-03T05:57:28.519Z,0.00
2018-12-03T05:58:28.536Z,0.00
2018-12-03T05:59:28.496Z,0.00
2018-12-03T06:00:28.484Z,0.00
2018-12-03T06:01:28.474Z,0.00
2018-12-03T06:02:28.477Z,0.00
2018-12-03T06:03:28.464Z,0.00
2018-12-03T06:04:28.440Z,0.00
2018-12-03T06:05:28.431Z,0.00
2018-12-03T06:06:28.428Z,0.00
2018-12-03T06:07:28.409Z,0.00
2018-12-03T06:08:28.419Z,0.00
2018-12-03T06:09:28.387Z,0.00
2018-12-03T06:10:28.374Z,0.00
2018-12-03T06:11:28.375Z,0.00
2018-12-03T06:12:28.358Z,0.00
2018-12-03T06:13:28.355Z,0.00
2018-12-03T06:14:28.329Z,0.00
2018-12-03T06:15:28.319Z,0.00
2018-12-03T06:16:28.311Z,0.00
2018-12-03T06:17:28.306Z,0.00
2018-12-03T06:18:28.303Z,0.00
2018-12-03T06:19:28.277Z,0.00
2018-12-03T06:20:28.268Z,0.00
2018-12-03T06:21:28.257Z,0.00
2018-12-03T06:22:28.244Z,0.00
2018-12-03T06:23:28.274Z,0.00
2018-12-03T06:24:28.223Z,0.00
2018-12-03T06:25:28.214Z,0.00
2018-12-03T06:26:28.204Z,0.00
2018-12-03T06:27:28.192Z,0.00
2018-12-03T06:28:28.189Z,0.00
2018-12-03T06:29:28.182Z,0.00
2018-12-03T06:30:28.158Z,0.00
2018-12-03T06:31:28.151Z,0.00
2018-12-03T06:32:28.136Z,0.00
2018-12-03T06:33:28.144Z,0.00
2018-12-03T06:34:28.128Z,0.00
2018-12-03T06:35:28.107Z,4.00
2018-12-03T06:36:28.091Z,4.00
2018-12-03T06:37:28.079Z,0.00
2018-12-03T06:38:28.069Z,0.00
2018-12-03T06:39:28.075Z,0.00
2018-12-03T06:40:28.052Z,0.00
2018-12-03T06:41:28.055Z,0.00
2018-12-03T06:42:28.030Z,4.00
2018-12-03T06:43:28.017Z,4.00
2018-12-03T06:44:28.017Z,0.00
2018-12-03T06:45:27.995Z,0.00
2018-12-03T06:46:28.031Z,0.00
2018-12-03T06:47:27.973Z,0.00
2018-12-03T06:48:27.966Z,4.00
2018-12-03T06:49:27.960Z,4.00
2018-12-03T06:50:27.940Z,4.00
2018-12-03T06:51:27.927Z,8.00
2018-12-03T06:52:27.918Z,8.00
2018-12-03T06:53:27.905Z,0.00
2018-12-03T06:54:27.905Z,12.00
2018-12-03T06:55:27.882Z,8.00
2018-12-03T06:56:27.870Z,8.00
2018-12-03T06:57:27.863Z,28.00
2018-12-03T06:58:27.852Z,28.00
2018-12-03T06:59:27.862Z,28.00
2018-12-03T07:00:27.824Z,24.00
2018-12-03T07:01:27.816Z,24.00
2018-12-03T07:02:27.807Z,20.00
2018-12-03T07:03:27.795Z,20.00
2018-12-03T07:04:27.795Z,16.00
2018-12-03T07:05:27.772Z,16.00
2018-12-03T07:06:27.758Z,12.00
2018-12-03T07:07:27.750Z,16.00
2018-12-03T07:08:27.737Z,20.00
2018-12-03T07:09:27.748Z,20.00
2018-12-03T07:10:27.717Z,28.00
2018-12-03T07:11:27.705Z,24.00
2018-12-03T07:12:27.701Z,28.00
2018-12-03T07:13:27.688Z,32.00
2018-12-03T07:14:27.690Z,28.00
2018-12-03T07:15:27.666Z,36.00
2018-12-03T07:16:27.654Z,36.00
2018-12-03T07:17:27.642Z,48.00
2018-12-03T07:18:27.636Z,56.00
2018-12-03T07:19:27.636Z,64.00
2018-12-03T07:20:27.611Z,80.00
2018-12-03T07:21:27.605Z,84.00
2018-12-03T07:22:27.588Z,96.00
2018-12-03T07:23:27.578Z,100.00
2018-12-03T07:24:27.579Z,100.00
2018-12-03T07:25:27.554Z,104.00
2018-12-03T07:26:27.545Z,116.00
2018-12-03T07:27:27.531Z,136.00
2018-12-03T07:28:27.522Z,144.00
2018-12-03T07:29:27.525Z,168.00
2018-12-03T07:30:27.499Z,192.00
2018-12-03T07:31:27.487Z,204.00
2018-12-03T07:32:27.477Z,220.00
2018-12-03T07:33:27.466Z,232.00
2018-12-03T07:34:27.467Z,244.00
2018-12-03T07:35:27.447Z,244.00
2018-12-03T07:36:27.462Z,240.00
2018-12-03T07:37:27.419Z,248.00
2018-12-03T07:38:27.410Z,260.00
2018-12-03T07:39:27.417Z,264.00
2018-12-03T07:40:27.386Z,256.00
2018-12-03T07:41:27.395Z,260.00
2018-12-03T07:42:27.368Z,256.00
2018-12-03T07:43:27.357Z,260.00
2018-12-03T07:44:27.358Z,284.00
2018-12-03T07:45:27.333Z,312.00
2018-12-03T07:46:27.324Z,340.00
2018-12-03T07:47:27.310Z,364.00
2018-12-03T07:48:27.299Z,380.00
2018-12-03T07:49:27.310Z,400.00
2018-12-03T07:50:27.277Z,416.00
2018-12-03T07:51:27.265Z,440.00
2018-12-03T07:52:27.255Z,472.00
2018-12-03T07:53:27.245Z,524.00
2018-12-03T07:54:27.248Z,600.00
2018-12-03T07:55:27.273Z,676.00
2018-12-03T07:56:27.210Z,780.00
2018-12-03T07:57:27.199Z,956.00
2018-12-03T07:58:27.187Z,1204.00
2018-12-03T07:59:27.187Z,1388.00
2018-12-03T08:00:27.179Z,1436.00
2018-12-03T08:01:27.151Z,1400.00
2018-12-03T08:02:27.139Z,1324.00
2018-12-03T08:03:27.127Z,1280.00
2018-12-03T08:04:27.134Z,1204.00
2018-12-03T08:05:27.103Z,1184.00
2018-12-03T08:06:27.112Z,1148.00
2018-12-03T08:07:27.087Z,1148.00
2018-12-03T08:08:27.075Z,1152.00
2018-12-03T08:09:27.066Z,1220.00
2018-12-03T08:10:27.053Z,1264.00
2018-12-03T08:11:27.040Z,1336.00
2018-12-03T08:12:27.029Z,1444.00
2018-12-03T08:13:27.019Z,1536.00
2018-12-03T08:14:27.019Z,1556.00
2018-12-03T08:15:27.000Z,1584.00
2018-12-03T08:16:26.986Z,1600.00
2018-12-03T08:17:26.973Z,1452.00
2018-12-03T08:18:26.966Z,1260.00
2018-12-03T08:19:27.008Z,1208.00
2018-12-03T08:20:26.944Z,1188.00
2018-12-03T08:21:26.932Z,1216.00
2018-12-03T08:22:26.917Z,1296.00
2018-12-03T08:23:26.904Z,1332.00
2018-12-03T08:24:26.910Z,1516.00
2018-12-03T08:25:26.893Z,1720.00
2018-12-03T08:26:26.872Z,1748.00
2018-12-03T08:27:26.869Z,1740.00
2018-12-03T08:28:26.850Z,1676.00
2018-12-03T08:29:26.870Z,1660.00
2018-12-03T08:30:26.832Z,1672.00
2018-12-03T08:31:26.820Z,1768.00
2018-12-03T08:32:27.407Z,1808.00
2018-12-03T08:33:26.797Z,1740.00
2018-12-03T08:34:26.783Z,1768.00
2018-12-03T08:35:26.786Z,2196.00
2018-12-03T08:36:26.762Z,2620.00
2018-12-03T08:37:26.754Z,2840.00
2018-12-03T08:38:26.742Z,2796.00
2018-12-03T08:39:26.733Z,3092.00
2018-12-03T08:40:26.736Z,3236.00
2018-12-03T08:41:26.708Z,3388.00
2018-12-03T08:42:26.698Z,4200.00
2018-12-03T08:43:26.690Z,4588.00
2018-12-03T08:44:26.681Z,3984.00
2018-12-03T08:45:26.669Z,4060.00
2018-12-03T08:46:26.655Z,4444.00
2018-12-03T08:47:26.642Z,5572.00
2018-12-03T08:48:26.633Z,3348.00
2018-12-03T08:49:26.620Z,4436.00
2018-12-03T08:50:26.625Z,4528.00
2018-12-03T08:51:26.598Z,4340.00
2018-12-03T08:52:26.595Z,2848.00
2018-12-03T08:53:26.576Z,2520.00
2018-12-03T08:54:26.564Z,2048.00
2018-12-03T08:55:26.570Z,1400.00
2018-12-03T08:56:26.541Z,1052.00
2018-12-03T08:57:26.531Z,1436.00
2018-12-03T08:58:26.539Z,1736.00
2018-12-03T08:59:26.517Z,2500.00
2018-12-03T09:00:26.516Z,1872.00
2018-12-03T09:01:26.485Z,1356.00
2018-12-03T09:02:26.474Z,1880.00
2018-12-03T09:03:26.463Z,2548.00
2018-12-03T09:04:26.455Z,3124.00
2018-12-03T09:05:26.456Z,2552.00
2018-12-03T09:06:26.433Z,1700.00
2018-12-03T09:07:26.422Z,1936.00
2018-12-03T09:08:26.409Z,1484.00
2018-12-03T09:09:26.401Z,1512.00
2018-12-03T09:10:26.395Z,1180.00
2018-12-03T09:11:26.389Z,1860.00
2018-12-03T09:12:26.363Z,1988.00
2018-12-03T09:13:26.352Z,980.00
2018-12-03T09:14:26.344Z,1012.00
2018-12-03T09:15:26.341Z,1320.00
2018-12-03T09:16:26.317Z,1160.00
2018-12-03T09:17:26.310Z,1428.00
2018-12-03T09:18:26.294Z,1332.00
2018-12-03T09:19:26.283Z,1456.00
2018-12-03T09:20:26.289Z,1424.00
2018-12-03T09:21:26.263Z,1404.00
2018-12-03T09:22:26.258Z,1028.00
2018-12-03T09:23:26.243Z,1052.00
2018-12-03T09:24:26.231Z,1560.00
2018-12-03T09:25:26.231Z,1764.00
2018-12-03T09:26:26.202Z,2224.00
2018-12-03T09:27:26.181Z,2212.00
2018-12-03T09:28:26.182Z,2580.00
2018-12-03T09:29:26.171Z,2016.00
2018-12-03T09:30:27.889Z,1396.00
2018-12-03T09:31:26.149Z,1600.00
2018-12-03T09:32:26.137Z,1076.00
2018-12-03T09:33:26.125Z,1404.00
2018-12-03T09:34:26.114Z,1160.00
2018-12-03T09:35:26.115Z,1360.00
2018-12-03T09:36:26.091Z,1624.00
2018-12-03T09:37:26.080Z,1448.00
2018-12-03T09:38:26.068Z,1736.00
2018-12-03T09:39:26.058Z,2068.00
2018-12-03T09:40:26.058Z,1840.00
2018-12-03T09:41:26.035Z,2276.00
2018-12-03T09:42:26.024Z,1852.00
2018-12-03T09:43:26.012Z,2016.00
2018-12-03T09:44:25.998Z,2468.00
2018-12-03T09:45:26.007Z,1972.00
2018-12-03T09:46:25.984Z,2064.00
2018-12-03T09:47:25.976Z,2008.00
2018-12-03T09:48:25.956Z,2000.00
2018-12-03T09:49:25.946Z,1676.00
2018-12-03T09:50:25.949Z,1696.00
2018-12-03T09:51:25.923Z,1780.00
2018-12-03T09:52:25.912Z,2060.00
2018-12-03T09:53:25.923Z,1776.00
2018-12-03T09:54:25.890Z,2524.00
2018-12-03T09:55:25.893Z,2532.00
2018-12-03T09:56:25.870Z,2772.00
2018-12-03T09:57:25.855Z,2976.00
2018-12-03T09:58:25.845Z,3300.00
2018-12-03T09:59:25.873Z,2500.00
2018-12-03T10:00:25.839Z,2624.00
2018-12-03T10:01:25.810Z,3332.00
2018-12-03T10:02:25.799Z,2960.00
2018-12-03T10:03:25.789Z,2232.00
2018-12-03T10:04:25.783Z,1924.00
2018-12-03T10:05:25.782Z,3108.00
2018-12-03T10:06:25.755Z,2968.00
2018-12-03T10:07:25.744Z,2868.00
2018-12-03T10:08:25.733Z,1944.00
2018-12-03T10:09:25.722Z,2608.00
2018-12-03T10:10:25.730Z,2720.00
2018-12-03T10:11:25.700Z,3336.00
2018-12-03T10:12:25.688Z,3876.00
2018-12-03T10:13:25.679Z,3464.00
2018-12-03T10:14:25.669Z,3524.00
2018-12-03T10:15:25.663Z,3168.00
2018-12-03T10:16:25.638Z,2748.00
2018-12-03T10:17:25.626Z,2284.00
2018-12-03T10:18:25.616Z,2176.00
2018-12-03T10:19:25.605Z,1580.00
2018-12-03T10:20:25.605Z,1596.00
2018-12-03T10:21:25.582Z,1796.00
2018-12-03T10:22:25.574Z,2128.00
2018-12-03T10:23:25.560Z,2336.00
2018-12-03T10:24:25.549Z,2412.00
2018-12-03T10:25:25.547Z,2880.00
2018-12-03T10:26:25.524Z,3076.00
2018-12-03T10:27:25.515Z,3244.00
2018-12-03T10:28:25.508Z,3984.00
2018-12-03T10:29:25.492Z,2072.00
2018-12-03T10:30:25.487Z,2532.00
2018-12-03T10:31:25.469Z,3864.00
2018-12-03T10:32:25.457Z,3928.00
2018-12-03T10:33:25.445Z,3204.00
2018-12-03T10:34:25.436Z,5008.00
2018-12-03T10:35:25.458Z,4512.00
2018-12-03T10:36:25.416Z,4052.00
2018-12-03T10:37:25.395Z,3492.00
2018-12-03T10:38:25.390Z,2776.00
2018-12-03T10:39:26.986Z,2688.00
2018-12-03T10:40:25.352Z,2140.00
2018-12-03T10:41:25.378Z,1996.00
2018-12-03T10:42:25.341Z,2128.00
2018-12-03T10:43:25.329Z,1812.00
2018-12-03T10:44:25.326Z,1528.00
2018-12-03T10:45:26.221Z,1504.00
2018-12-03T10:46:25.313Z,1996.00
2018-12-03T10:47:25.286Z,2856.00
2018-12-03T10:48:25.274Z,3696.00
2018-12-03T10:49:25.261Z,3252.00
2018-12-03T10:50:25.250Z,3492.00
2018-12-03T10:51:25.258Z,3008.00
2018-12-03T10:52:25.227Z,2952.00
2018-12-03T10:53:25.220Z,3720.00
2018-12-03T10:54:25.207Z,3628.00
2018-12-03T10:55:25.198Z,3124.00
2018-12-03T10:56:25.195Z,2316.00
2018-12-03T10:57:25.175Z,2132.00
2018-12-03T10:58:25.169Z,1860.00
2018-12-03T10:59:25.148Z,1876.00
2018-12-03T11:00:25.134Z,1372.00
2018-12-03T11:01:25.138Z,1704.00
2018-12-03T11:02:25.116Z,2824.00
2018-12-03T11:03:25.099Z,2600.00
2018-12-03T11:04:25.088Z,1860.00
2018-12-03T11:05:25.080Z,1988.00
2018-12-03T11:06:25.079Z,2184.00
2018-12-03T11:07:25.054Z,2388.00
2018-12-03T11:08:27.139Z,2068.00
2018-12-03T11:09:25.393Z,1468.00
2018-12-03T11:10:25.021Z,972.00
2018-12-03T11:11:25.025Z,944.00
2018-12-03T11:12:25.354Z,1228.00
2018-12-03T11:13:25.039Z,1340.00
2018-12-03T11:14:24.976Z,1336.00
2018-12-03T11:15:24.962Z,996.00
2018-12-03T11:16:24.975Z,980.00
2018-12-03T11:17:24.938Z,1040.00
2018-12-03T11:18:24.926Z,1144.00
2018-12-03T11:19:24.917Z,944.00
2018-12-03T11:20:24.900Z,976.00
2018-12-03T11:21:24.917Z,1020.00
2018-12-03T11:22:24.882Z,1524.00
2018-12-03T11:23:24.870Z,1540.00
2018-12-03T11:24:24.867Z,1296.00
2018-12-03T11:25:24.865Z,1652.00
2018-12-03T11:26:24.865Z,2596.00
2018-12-03T11:27:25.287Z,2564.00
2018-12-03T11:28:24.814Z,1996.00
2018-12-03T11:29:24.792Z,2052.00
2018-12-03T11:30:24.791Z,2312.00
2018-12-03T11:31:24.794Z,1936.00
2018-12-03T11:32:24.769Z,1840.00
2018-12-03T11:33:24.759Z,2092.00
2018-12-03T11:34:24.746Z,1368.00
2018-12-03T11:35:24.735Z,2100.00
2018-12-03T11:36:24.737Z,1472.00
2018-12-03T11:37:24.709Z,1348.00
2018-12-03T11:38:24.700Z,1260.00
2018-12-03T11:39:24.691Z,1556.00
2018-12-03T11:40:24.677Z,1076.00
2018-12-03T11:41:24.682Z,804.00
2018-12-03T11:42:24.652Z,836.00
2018-12-03T11:43:24.644Z,568.00
2018-12-03T11:44:24.629Z,492.00
2018-12-03T11:45:24.619Z,444.00
2018-12-03T11:46:24.623Z,480.00
2018-12-03T11:47:24.599Z,568.00
2018-12-03T11:48:24.577Z,608.00
2018-12-03T11:49:24.573Z,596.00
2018-12-03T11:50:24.567Z,768.00
2018-12-03T11:51:24.567Z,940.00
2018-12-03T11:52:24.538Z,1152.00
2018-12-03T11:53:24.526Z,1108.00
2018-12-03T11:54:24.522Z,952.00
2018-12-03T11:55:24.502Z,844.00
2018-12-03T11:56:24.506Z,520.00
2018-12-03T11:57:24.478Z,392.00
2018-12-03T11:58:24.468Z,324.00
2018-12-03T11:59:24.456Z,320.00
2018-12-03T12:00:24.445Z,320.00
2018-12-03T12:01:24.446Z,544.00
2018-12-03T12:02:24.424Z,584.00
2018-12-03T12:03:24.419Z,488.00
2018-12-03T12:04:24.400Z,384.00
2018-12-03T12:05:24.391Z,388.00
2018-12-03T12:06:24.390Z,288.00
2018-12-03T12:07:24.379Z,264.00
2018-12-03T12:08:24.359Z,284.00
2018-12-03T12:09:24.344Z,340.00
2018-12-03T12:10:24.336Z,224.00
2018-12-03T12:11:24.338Z,256.00
2018-12-03T12:12:24.310Z,316.00
2018-12-03T12:13:24.299Z,356.00
2018-12-03T12:14:24.287Z,344.00
2018-12-03T12:15:24.281Z,312.00
2018-12-03T12:16:26.378Z,368.00
2018-12-03T12:17:24.255Z,356.00
2018-12-03T12:18:24.244Z,420.00
2018-12-03T12:19:24.232Z,436.00
2018-12-03T12:20:24.221Z,360.00
2018-12-03T12:21:24.222Z,284.00
2018-12-03T12:22:24.385Z,280.00
2018-12-03T12:23:24.187Z,300.00
2018-12-03T12:24:24.177Z,300.00
2018-12-03T12:25:24.161Z,424.00
2018-12-03T12:26:24.167Z,540.00
2018-12-03T12:27:24.137Z,456.00
2018-12-03T12:28:24.127Z,372.00
2018-12-03T12:29:24.115Z,316.00
2018-12-03T12:30:24.104Z,252.00
2018-12-03T12:31:24.125Z,228.00
2018-12-03T12:32:24.087Z,312.00
2018-12-03T12:33:24.070Z,296.00
2018-12-03T12:34:24.059Z,248.00
2018-12-03T12:35:24.054Z,220.00
2018-12-03T12:36:24.053Z,248.00
2018-12-03T12:37:24.031Z,200.00
2018-12-03T12:38:24.013Z,196.00
2018-12-03T12:39:24.002Z,188.00
2018-12-03T12:40:23.991Z,164.00
2018-12-03T12:41:23.980Z,136.00
2018-12-03T12:42:23.980Z,124.00
2018-12-03T12:43:23.953Z,120.00
2018-12-03T12:44:23.946Z,124.00
2018-12-03T12:45:23.937Z,140.00
2018-12-03T12:46:23.925Z,176.00
2018-12-03T12:47:23.928Z,192.00
2018-12-03T12:48:23.888Z,184.00
2018-12-03T12:49:23.894Z,216.00
2018-12-03T12:50:23.878Z,248.00
2018-12-03T12:51:23.867Z,192.00
2018-12-03T12:52:23.867Z,152.00
2018-12-03T12:53:23.843Z,188.00
2018-12-03T12:54:23.832Z,344.00
2018-12-03T12:55:23.822Z,504.00
2018-12-03T12:56:23.810Z,524.00
2018-12-03T12:57:23.803Z,476.00
2018-12-03T12:58:23.787Z,452.00
2018-12-03T12:59:23.775Z,444.00
2018-12-03T13:00:23.767Z,684.00
2018-12-03T13:01:23.758Z,992.00
2018-12-03T13:02:23.754Z,1140.00
2018-12-03T13:03:23.734Z,1164.00
2018-12-03T13:04:23.719Z,988.00
2018-12-03T13:05:28.569Z,1112.00
2018-12-03T13:06:24.699Z,1280.00
2018-12-03T13:07:23.698Z,1388.00
2018-12-03T13:08:23.683Z,1512.00
2018-12-03T13:09:23.664Z,1792.00
2018-12-03T13:10:23.656Z,1828.00
2018-12-03T13:11:23.667Z,1476.00
2018-12-03T13:22:34.605Z,224.00
2018-12-03T13:23:34.555Z,180.00
2018-12-03T13:24:34.544Z,152.00
2018-12-03T13:25:37.473Z,136.00
2018-12-03T13:26:34.520Z,140.00
2018-12-03T13:27:34.529Z,208.00
2018-12-03T13:28:34.497Z,252.00
2018-12-03T13:29:34.619Z,248.00
2018-12-03T13:30:34.471Z,256.00
2018-12-03T13:31:34.464Z,236.00
2018-12-03T13:32:34.465Z,232.00
2018-12-03T13:33:34.437Z,264.00
2018-12-03T13:34:34.588Z,344.00
2018-12-03T13:35:34.414Z,412.00
2018-12-03T13:36:34.406Z,400.00
2018-12-03T13:37:34.407Z,416.00
2018-12-03T13:38:34.376Z,484.00
2018-12-03T13:39:34.370Z,440.00
2018-12-03T13:40:34.358Z,520.00
2018-12-03T13:41:34.352Z,640.00
2018-12-03T13:42:34.356Z,576.00
2018-12-03T13:43:34.376Z,288.00
2018-12-03T13:44:34.308Z,244.00
2018-12-03T13:45:34.298Z,228.00
2018-12-03T13:46:34.298Z,236.00
2018-12-03T13:47:34.288Z,296.00
2018-12-03T13:48:34.264Z,336.00
2018-12-03T13:49:34.253Z,240.00
2018-12-03T13:50:34.243Z,188.00
2018-12-03T13:51:34.234Z,172.00
2018-12-03T13:52:34.233Z,160.00
2018-12-03T13:53:34.213Z,152.00
2018-12-03T13:54:34.199Z,196.00
2018-12-03T13:55:34.192Z,196.00
2018-12-03T13:56:34.175Z,180.00
2018-12-03T13:57:36.286Z,180.00
2018-12-03T13:58:34.147Z,156.00
2018-12-03T13:59:34.138Z,120.00
2018-12-03T14:00:34.125Z,88.00
2018-12-03T14:01:34.119Z,100.00
2018-12-03T14:02:34.126Z,112.00
2018-12-03T14:03:34.090Z,100.00
2018-12-03T14:04:34.287Z,96.00
2018-12-03T14:05:34.069Z,100.00
2018-12-03T14:06:34.057Z,104.00
2018-12-03T14:07:34.058Z,100.00
2018-12-03T14:08:34.035Z,104.00
2018-12-03T14:09:34.025Z,120.00
2018-12-03T14:10:34.011Z,104.00
2018-12-03T14:11:34.000Z,96.00
2018-12-03T14:12:33.997Z,88.00
2018-12-03T14:13:33.982Z,80.00
2018-12-03T14:14:33.963Z,88.00
2018-12-03T14:15:33.952Z,104.00
2018-12-03T14:16:33.938Z,116.00
2018-12-03T14:17:33.951Z,92.00
2018-12-03T14:18:33.917Z,100.00
2018-12-03T14:19:33.907Z,112.00
2018-12-03T14:20:33.895Z,108.00
2018-12-03T14:21:33.880Z,100.00
2018-12-03T14:22:33.884Z,96.00
2018-12-03T14:23:33.861Z,124.00
2018-12-03T14:24:33.854Z,156.00
2018-12-03T14:25:33.841Z,132.00
2018-12-03T14:26:33.827Z,136.00
2018-12-03T14:27:33.829Z,124.00
2018-12-03T14:28:33.812Z,100.00
2018-12-03T14:29:33.798Z,112.00
2018-12-03T14:30:33.782Z,84.00
2018-12-03T14:31:33.771Z,100.00
2018-12-03T14:32:33.777Z,160.00
2018-12-03T14:33:33.748Z,196.00
2018-12-03T14:34:33.742Z,200.00
2018-12-03T14:35:33.735Z,184.00
2018-12-03T14:36:33.715Z,148.00
2018-12-03T14:37:33.719Z,116.00
2018-12-03T14:38:33.692Z,112.00
2018-12-03T14:39:33.680Z,104.00
2018-12-03T14:40:33.671Z,116.00
2018-12-03T14:41:33.660Z,104.00
2018-12-03T14:42:33.661Z,84.00
2018-12-03T14:43:33.631Z,108.00
2018-12-03T14:44:33.621Z,104.00
2018-12-03T14:45:33.611Z,96.00
2018-12-03T14:46:33.598Z,56.00
2018-12-03T14:47:33.599Z,36.00
2018-12-03T14:48:33.577Z,24.00
2018-12-03T14:49:33.570Z,24.00
2018-12-03T14:50:33.552Z,20.00
2018-12-03T14:51:33.549Z,36.00
2018-12-03T14:52:33.548Z,56.00
2018-12-03T14:53:33.518Z,48.00
2018-12-03T14:54:33.505Z,48.00
2018-12-03T14:55:33.492Z,48.00
2018-12-03T14:56:33.482Z,32.00
2018-12-03T14:57:33.484Z,24.00
2018-12-03T14:58:33.460Z,20.00
2018-12-03T14:59:33.449Z,16.00
2018-12-03T15:00:33.435Z,12.00
2018-12-03T15:03:15.920Z,12.00
2018-12-03T15:03:43.125Z,12.00
2018-12-03T15:04:43.111Z,16.00
2018-12-03T15:05:43.102Z,16.00
2018-12-03T15:06:43.097Z,8.00
2018-12-03T15:07:43.086Z,12.00
2018-12-03T15:08:43.067Z,8.00
2018-12-03T15:09:43.055Z,12.00
2018-12-03T15:10:43.046Z,8.00
2018-12-03T15:11:43.032Z,12.00
2018-12-03T15:12:43.036Z,4.00
2018-12-03T15:13:43.010Z,12.00
2018-12-03T15:14:42.999Z,4.00
2018-12-03T15:15:42.985Z,16.00
2018-12-03T15:16:42.972Z,8.00
2018-12-03T15:17:42.974Z,8.00
2018-12-03T15:18:42.949Z,8.00
2018-12-03T15:19:42.938Z,8.00
2018-12-03T15:20:42.929Z,8.00
2018-12-03T15:21:42.919Z,4.00
2018-12-03T15:22:42.917Z,12.00
2018-12-03T15:23:42.895Z,12.00
2018-12-03T15:24:42.882Z,4.00
2018-12-03T15:25:42.871Z,8.00
2018-12-03T15:26:42.920Z,8.00
2018-12-03T15:27:42.907Z,4.00
2018-12-03T15:28:42.973Z,4.00
2018-12-03T15:29:42.830Z,4.00
2018-12-03T15:30:42.814Z,4.00
2018-12-03T15:31:42.804Z,4.00
2018-12-03T15:32:42.788Z,4.00
2018-12-03T15:33:42.793Z,0.00
2018-12-03T15:34:42.779Z,0.00
2018-12-03T15:35:42.755Z,0.00
2018-12-03T15:36:42.743Z,0.00
2018-12-03T15:37:42.736Z,0.00
2018-12-03T15:38:42.736Z,0.00
2018-12-03T15:39:42.710Z,0.00
2018-12-03T15:40:42.702Z,0.00
2018-12-03T15:41:42.686Z,0.00
2018-12-03T15:42:42.676Z,0.00
2018-12-03T15:43:42.676Z,0.00
2018-12-03T15:44:42.654Z,0.00
2018-12-03T15:45:42.641Z,0.00
2018-12-03T15:46:43.790Z,0.00
2018-12-03T15:47:42.617Z,0.00
2018-12-03T15:48:42.621Z,0.00
2018-12-03T15:49:42.592Z,0.00
2018-12-03T15:50:42.603Z,0.00
2018-12-03T15:51:42.570Z,0.00
2018-12-03T15:52:42.566Z,0.00
2018-12-03T15:53:43.382Z,0.00
2018-12-03T15:54:42.528Z,0.00
2018-12-03T15:55:42.525Z,0.00
2018-12-03T15:56:42.520Z,0.00
2018-12-03T15:57:42.507Z,0.00
2018-12-03T15:58:42.509Z,0.00
2018-12-03T15:59:42.481Z,0.00
2018-12-03T16:00:42.464Z,0.00
2018-12-03T16:01:42.454Z,0.00
2018-12-03T16:02:42.442Z,0.00
2018-12-03T16:03:42.450Z,0.00
2018-12-03T16:04:42.420Z,0.00
2018-12-03T16:05:42.440Z,0.00
2018-12-03T16:06:42.398Z,0.00
2018-12-03T16:07:42.387Z,0.00
2018-12-03T16:08:42.390Z,0.00
2018-12-03T16:09:42.363Z,0.00
2018-12-03T16:10:42.356Z,0.00
2018-12-03T16:11:42.341Z,0.00
2018-12-03T16:12:42.331Z,0.00
2018-12-03T16:13:42.335Z,0.00
2018-12-03T16:14:42.308Z,0.00
2018-12-03T16:15:42.296Z,0.00
2018-12-03T16:16:42.284Z,0.00
2018-12-03T16:17:42.273Z,0.00
2018-12-03T16:18:42.274Z,0.00
2018-12-03T16:19:42.250Z,0.00
2018-12-03T16:20:42.241Z,0.00
2018-12-03T16:21:42.229Z,0.00
2018-12-03T16:22:42.256Z,0.00
2018-12-03T16:23:42.219Z,0.00
2018-12-03T16:24:42.193Z,0.00
2018-12-03T16:25:42.189Z,0.00
2018-12-03T16:26:42.168Z,0.00
2018-12-03T16:27:42.158Z,0.00
2018-12-03T16:28:42.167Z,0.00
2018-12-03T16:29:42.137Z,0.00
2018-12-03T16:30:42.127Z,0.00
2018-12-03T16:31:42.112Z,0.00
2018-12-03T16:32:42.102Z,0.00
2018-12-03T16:33:42.101Z,0.00
2018-12-03T16:34:42.079Z,0.00
2018-12-03T16:35:42.067Z,0.00
2018-12-03T16:36:42.052Z,0.00
2018-12-03T16:37:42.044Z,0.00
2018-12-03T16:38:42.047Z,0.00
2018-12-03T16:39:42.018Z,0.00
2018-12-03T16:40:42.003Z,0.00
2018-12-03T16:41:41.997Z,0.00
2018-12-03T16:42:41.988Z,0.00
2018-12-03T16:43:41.982Z,0.00
2018-12-03T16:44:41.966Z,0.00
2018-12-03T16:45:41.948Z,0.00
2018-12-03T16:46:41.939Z,0.00
2018-12-03T16:47:41.933Z,0.00
2018-12-03T16:48:41.926Z,0.00
2018-12-03T16:49:41.901Z,0.00
2018-12-03T16:50:41.893Z,0.00
2018-12-03T16:51:41.879Z,0.00
2018-12-03T16:52:41.863Z,0.00
2018-12-03T16:53:41.869Z,0.00
2018-12-03T16:54:41.845Z,0.00
2018-12-03T16:55:41.835Z,0.00
2018-12-03T16:56:41.851Z,0.00
2018-12-03T16:57:41.811Z,0.00
2018-12-03T16:58:41.812Z,0.00
2018-12-03T16:59:41.788Z,0.00
2018-12-03T17:00:41.777Z,0.00
2018-12-03T17:01:41.760Z,0.00
2018-12-03T17:02:41.753Z,0.00
2018-12-03T17:03:41.760Z,0.00
2018-12-03T17:04:41.730Z,0.00
2018-12-03T17:05:41.716Z,0.00
2018-12-03T17:06:41.719Z,0.00
2018-12-03T17:07:41.695Z,0.00
2018-12-03T17:08:41.696Z,0.00
2018-12-03T17:09:41.817Z,0.00
2018-12-03T17:10:41.676Z,0.00
2018-12-03T17:11:41.649Z,0.00
2018-12-03T17:12:41.639Z,0.00
2018-12-03T17:13:41.639Z,0.00
2018-12-03T17:14:41.612Z,0.00
2018-12-03T17:15:41.600Z,0.00
2018-12-03T17:16:41.589Z,0.00
2018-12-03T17:17:41.580Z,0.00
2018-12-03T17:18:41.591Z,0.00
2018-12-03T17:19:41.557Z,0.00
2018-12-03T17:20:41.548Z,0.00
2018-12-03T17:21:41.535Z,0.00
2018-12-03T17:22:41.522Z,0.00
2018-12-03T17:23:41.526Z,0.00
2018-12-03T17:24:41.497Z,0.00
2018-12-03T17:25:41.487Z,0.00
2018-12-03T17:26:41.472Z,0.00
2018-12-03T17:27:41.462Z,0.00
2018-12-03T17:28:41.473Z,0.00
2018-12-03T17:29:41.438Z,0.00
2018-12-03T17:30:41.432Z,0.00
2018-12-03T17:31:41.418Z,0.00
2018-12-03T17:32:41.404Z,0.00
2018-12-03T17:33:41.430Z,0.00
2018-12-03T17:34:41.383Z,0.00
2018-12-03T17:35:41.367Z,0.00
2018-12-03T17:36:41.378Z,0.00
2018-12-03T17:37:42.048Z,0.00
2018-12-03T17:38:42.718Z,0.00
2018-12-03T17:39:41.334Z,0.00
2018-12-03T17:40:41.310Z,0.00
2018-12-03T17:41:41.301Z,0.00
2018-12-03T17:42:41.293Z,0.00
2018-12-03T17:43:41.283Z,0.00
2018-12-03T17:44:41.281Z,0.00
2018-12-03T17:45:41.246Z,0.00
2018-12-03T17:46:41.252Z,0.00
2018-12-03T17:47:41.229Z,0.00
2018-12-03T17:48:41.218Z,0.00
2018-12-03T17:49:41.270Z,0.00
2018-12-03T17:50:42.829Z,0.00
2018-12-03T17:51:42.792Z,0.00